Terminal Aerodrome Forecast
Issued by NWS

Home | Current Version | Previous Version | Text Only | Print | Product List | Glossary Off
Versions: 1 2 3 4 5 6 7 8 9 10 11 12 13

000
FTUS42 KMHX 292300
TAFOAJ
TAF
KOAJ 292332Z 3000/3024 17007KT P6SM BKN100
     FM300700 24007KT 6SM -SHRA OVC035
     FM301400 31016G26KT P6SM SCT040
     FM302200 30008KT P6SM SKC
      AMD LTD TO CLD VIS AND WIND=

USA.gov is the U.S. government's official web portal to all federal, state and local government web resources and services.